Middleburg VA US WEATHERSTEM current weather conditions

sailwx.info

Wind from 241 at 6 knots gusting 7

Air temperature 21.8° C
Dewpoint 20.2° C

Last reported at 2020-Jul-07 08:00 UTC.
Time now 2020-Jul-07 08:44 UTC

Location: N 38°57' W 077°44'.
View on Google Maps.

See reports from other nearby stations

  
Tides and Currents Weather Stations Pressure Air Temp Water Temp Dewpoint Dewpoint Depression Visibility Wind Speed Wind Dir Waves Ship Positions
date/time (UTC)wind fromknots sea level pressurealtimeterstation pressurevisibilityair tempwater tempwave heightnotes
2020-Jul-07 08:00 241 6 gusting 7 21.8
2020-Jul-07 07:50 234 5 gusting 5 21.9
2020-Jul-07 07:40 210 6 gusting 5 21.7
2020-Jul-07 07:30 177 4 gusting 4 21.8
2020-Jul-07 07:20 171 4 gusting 2 22.0
2020-Jul-07 07:10 165 2 gusting 3 22.0
2020-Jul-07 07:00 112 0 21.8
2020-Jul-07 06:50 123 0 gusting 1 21.8
2020-Jul-07 06:40 124 0 21.9
2020-Jul-07 06:30 21.9
2020-Jul-07 06:20 102 0 21.9
2020-Jul-07 06:10 192 0 gusting 1 21.9
2020-Jul-07 06:00 022 0 gusting 1 21.9
2020-Jul-07 05:50 21.9
2020-Jul-07 05:30 22.0
2020-Jul-07 05:20 036 0 gusting 3 22.0
2020-Jul-07 05:10 22.0
2020-Jul-07 05:00 155 1 gusting 1 22.0
2020-Jul-07 04:50 060 2 gusting 1 22.1
2020-Jul-07 04:40 081 0 22.1
2020-Jul-07 04:30 088 2 gusting 1 22.2
2020-Jul-07 04:20 122 1 22.4
2020-Jul-07 04:10 109 2 gusting 3 22.5
2020-Jul-07 04:00 138 3 gusting 3 22.5
2020-Jul-07 03:50 094 2 gusting 2 22.7
2020-Jul-07 03:40 093 4 gusting 5 22.8
2020-Jul-07 03:30 136 2 gusting 2 23.0
2020-Jul-07 03:20 083 4 gusting 3 23.3
2020-Jul-07 03:10 070 3 gusting 2 23.5
2020-Jul-07 03:00 120 3 gusting 1 23.9
2020-Jul-07 02:50 077 3 gusting 2 24.2
2020-Jul-07 02:40 115 0 24.3
2020-Jul-07 02:30 077 1 24.1
2020-Jul-07 02:20 065 1 gusting 1 24.1
2020-Jul-07 02:10 057 1 gusting 1 24.1
2020-Jul-07 02:00 062 1 gusting 1 24.6
2020-Jul-07 01:50 24.8
2020-Jul-07 01:40 25.0
2020-Jul-07 01:30 25.5
2020-Jul-07 01:20 25.3
2020-Jul-07 01:10 260 0 gusting 0 25.2
2020-Jul-07 01:00 221 0 gusting 2 25.3
2020-Jul-07 00:50 26.4
2020-Jul-07 00:40 26.7
2020-Jul-07 00:30 27.0
2020-Jul-07 00:20 27.5
2020-Jul-07 00:10 162 0 28.3
2020-Jul-07 00:00 28.5
2020-Jul-06 23:50 29.0
2020-Jul-06 23:40 29.3
2020-Jul-06 23:30 28.4
2020-Jul-06 23:20 318 1 gusting 1 28.1
2020-Jul-06 23:10 259 2 gusting 3 28.2
2020-Jul-06 23:00 275 3 gusting 4 28.4
2020-Jul-06 22:50 290 3 gusting 3 28.5
2020-Jul-06 22:40 272 4 gusting 5 28.7
2020-Jul-06 22:30 269 4 gusting 3 29.0
2020-Jul-06 22:20 235 6 gusting 6 29.1
2020-Jul-06 22:10 258 5 gusting 4 29.3
2020-Jul-06 22:00 245 8 gusting 7 29.8
2020-Jul-06 21:50 239 9 gusting 11 30.6
2020-Jul-06 21:40 228 9 gusting 10 31.7
2020-Jul-06 21:30 224 8 gusting 8 32.7
2020-Jul-06 21:20 260 9 gusting 9 32.9
2020-Jul-06 21:10 212 7 gusting 7 33.2
2020-Jul-06 21:00 203 8 gusting 7 33.3
2020-Jul-06 20:50 227 7 gusting 8 33.5
2020-Jul-06 20:40 243 7 gusting 8 33.6
2020-Jul-06 20:30 247 7 gusting 6 33.5
2020-Jul-06 20:20 225 8 gusting 10 33.5
2020-Jul-06 20:10 231 7 gusting 11 33.0
2020-Jul-06 20:00 247 6 gusting 5 32.6
2020-Jul-06 19:50 261 6 gusting 6 33.4
2020-Jul-06 19:40 232 8 gusting 7 33.3
2020-Jul-06 19:30 215 5 gusting 4 32.9
2020-Jul-06 19:20 226 6 gusting 6 33.2
2020-Jul-06 19:10 208 7 gusting 6 33.1
2020-Jul-06 19:00 223 6 gusting 5 32.7
2020-Jul-06 18:50 260 5 gusting 7 33.5
2020-Jul-06 18:40 190 5 gusting 6 33.1
2020-Jul-06 18:30 180 3 gusting 4 32.7
2020-Jul-06 18:20 198 7 gusting 7 32.8
2020-Jul-06 18:10 192 4 gusting 5 32.6
2020-Jul-06 18:00 266 3 gusting 2 32.6
2020-Jul-06 17:50 183 3 gusting 5 32.9
2020-Jul-06 17:40 185 4 gusting 4 32.9
2020-Jul-06 17:30 187 4 gusting 4 32.2
2020-Jul-06 17:20 201 3 gusting 5 32.5
2020-Jul-06 17:10 183 2 gusting 2 32.8
2020-Jul-06 17:00 193 3 gusting 5 32.6
2020-Jul-06 16:50 162 4 gusting 3 32.7
2020-Jul-06 16:40 176 3 gusting 4 32.5
2020-Jul-06 16:30 222 3 gusting 2 31.7
2020-Jul-06 16:20 231 2 gusting 2 32.0
2020-Jul-06 16:10 214 2 gusting 1 31.9
2020-Jul-06 16:00 140 0 gusting 3 32.3
2020-Jul-06 15:50 184 1 gusting 1 31.8
2020-Jul-06 15:40 164 3 gusting 2 31.5
2020-Jul-06 15:30 222 3 gusting 3 30.7
2020-Jul-06 15:20 263 2 gusting 2 31.2
2020-Jul-06 15:10 097 1 gusting 2 31.0
2020-Jul-06 15:00 261 3 gusting 4 30.5
2020-Jul-06 14:50 341 1 gusting 0 30.2
2020-Jul-06 14:40 024 1 30.2
2020-Jul-06 14:30 207 3 gusting 3 29.2
2020-Jul-06 14:20 021 0 gusting 1 29.1
2020-Jul-06 14:10 033 0 29.0
2020-Jul-06 14:00 225 1 gusting 1 28.0
2020-Jul-06 13:50 087 1 gusting 2 28.0
2020-Jul-06 13:40 269 0 gusting 1 27.5
2020-Jul-06 13:30 165 1 gusting 1 27.2
2020-Jul-06 13:20 187 2 gusting 1 26.8
2020-Jul-06 13:10 310 1 gusting 1 26.6
2020-Jul-06 13:00 25.7
2020-Jul-06 12:50 003 1 25.1
2020-Jul-06 12:40 25.1
2020-Jul-06 12:30 24.5
2020-Jul-06 12:20 189 0 23.6
2020-Jul-06 12:10 178 0 gusting 1 22.8
2020-Jul-06 12:00 177 1 gusting 1 22.3
2020-Jul-06 11:50 172 0 22.2
2020-Jul-06 11:40 21.9
2020-Jul-06 11:30 345 0 gusting 1 21.5
2020-Jul-06 11:20 21.3
2020-Jul-06 11:10 341 2 gusting 2 21.0
2020-Jul-06 11:00 021 0 gusting 0 20.7
2020-Jul-06 10:50 20.8
2020-Jul-06 10:40 20.8
2020-Jul-06 10:30 20.3
2020-Jul-06 10:20 20.1
2020-Jul-06 10:10 316 0 gusting 1 19.9
2020-Jul-06 10:00 337 1 gusting 1 19.7
2020-Jul-06 09:50 344 0 19.4
2020-Jul-06 09:40 281 0 18.9
2020-Jul-06 09:30 169 0 19.4
2020-Jul-06 09:20 19.4
2020-Jul-06 09:10 054 0 19.6
2020-Jul-06 09:00 19.8
2020-Jul-06 08:50 009 1 20.2
2020-Jul-06 08:40 20.3
2020-Jul-06 08:30 20.2
2020-Jul-06 08:20 356 0 gusting 0 19.9
2020-Jul-06 08:10 002 1 gusting 1 19.8
2020-Jul-06 08:00 165 0 gusting 2 19.9
2020-Jul-06 07:50 20.2
2020-Jul-06 07:40 19.9
2020-Jul-06 07:30 222 1 gusting 1 19.7
2020-Jul-06 07:20 20.1
2020-Jul-06 07:10 20.0
2020-Jul-06 07:00 248 0 gusting 1 19.8
2020-Jul-06 06:50 152 0 gusting 1 20.5
2020-Jul-06 06:40 20.6
2020-Jul-06 06:30 20.6
2020-Jul-06 06:20 20.7
2020-Jul-06 06:10 031 0 20.4
2020-Jul-06 06:00 20.4
2020-Jul-06 05:50 20.9
2020-Jul-06 05:40 076 0 gusting 1 21.2
2020-Jul-06 05:30 063 2 gusting 1 21.4
2020-Jul-06 05:20 21.6
2020-Jul-06 05:10 21.5
2020-Jul-06 05:00 21.7
2020-Jul-06 04:50 21.3
2020-Jul-06 04:40 21.6
2020-Jul-06 04:30 22.2
2020-Jul-06 04:20 172 0 22.3
2020-Jul-06 04:10 22.5
2020-Jul-06 04:00 236 0 gusting 0 22.6
2020-Jul-06 03:50 301 1 gusting 1 22.7
2020-Jul-06 03:40 22.9
2020-Jul-06 03:30 327 2 gusting 1 22.7
2020-Jul-06 03:20 330 1 gusting 2 22.2
2020-Jul-06 03:10 22.5
2020-Jul-06 03:00 298 0 22.1
2020-Jul-06 02:50 246 0 gusting 1 22.0
2020-Jul-06 02:40 22.1
2020-Jul-06 02:30 23.0
2020-Jul-06 02:20 22.7
2020-Jul-06 02:10 23.3
2020-Jul-06 02:00 056 0 23.5
2020-Jul-06 01:50 23.8
2020-Jul-06 01:40 24.1
2020-Jul-06 01:30 23.9
2020-Jul-06 01:20 300 1 gusting 1 24.2
2020-Jul-06 01:10 135 0 24.2
2020-Jul-06 01:00 267 0 gusting 2 24.2
2020-Jul-06 00:50 159 0 24.9
2020-Jul-06 00:40 25.4
2020-Jul-06 00:30 25.4
2020-Jul-06 00:20 232 1 gusting 1 25.9
2020-Jul-06 00:10 295 1 gusting 2 26.4
2020-Jul-06 00:00 26.6
2020-Jul-05 23:50 27.4
2020-Jul-05 23:40 010 0 gusting 1 27.7
2020-Jul-05 23:30 090 1 gusting 2 28.1
2020-Jul-05 23:20 112 0 28.6
2020-Jul-05 23:10 096 1 28.6
2020-Jul-05 23:00 077 0 28.7
2020-Jul-05 22:50 166 3 gusting 3 28.1
2020-Jul-05 22:40 154 3 gusting 4 28.8
2020-Jul-05 22:30 158 6 gusting 6 29.4
2020-Jul-05 22:20 184 4 gusting 5 29.8
2020-Jul-05 22:10 181 5 gusting 5 30.0
2020-Jul-05 22:00 201 6 gusting 7 29.4
2020-Jul-05 21:50 195 6 gusting 10 29.4
2020-Jul-05 21:40 185 6 gusting 6 30.2
2020-Jul-05 21:30 233 5 gusting 5 30.4
2020-Jul-05 21:20 249 5 gusting 6 30.1
2020-Jul-05 21:10 250 6 gusting 7 29.9
2020-Jul-05 21:00 253 7 gusting 7 30.1
2020-Jul-05 20:50 236 6 gusting 5 31.1
2020-Jul-05 20:40 170 2 gusting 3 33.3
2020-Jul-05 20:30 166 2 gusting 3 33.9
2020-Jul-05 20:20 203 3 gusting 2 33.0
2020-Jul-05 20:10 207 3 gusting 2 33.0
2020-Jul-05 20:00 213 4 gusting 3 32.7
2020-Jul-05 19:50 226 5 gusting 6 32.6
2020-Jul-05 19:40 199 2 gusting 3 32.9
2020-Jul-05 19:30 180 1 gusting 1 31.3
2020-Jul-05 19:20 109 1 gusting 1 31.7
2020-Jul-05 19:10 162 2 gusting 5 32.7
2020-Jul-05 19:00 198 3 gusting 5 32.8
2020-Jul-05 18:50 182 3 gusting 5 32.9
2020-Jul-05 18:40 174 3 gusting 4 33.4
2020-Jul-05 18:30 071 2 gusting 2 33.7
2020-Jul-05 18:20 158 2 gusting 3 33.2
2020-Jul-05 18:10 182 2 gusting 1 32.5
2020-Jul-05 18:00 070 3 gusting 5 32.3
2020-Jul-05 17:50 143 1 gusting 2 32.7
2020-Jul-05 17:40 168 2 gusting 1 32.3
2020-Jul-05 17:30 181 1 gusting 2 31.9
2020-Jul-05 17:20 239 1 gusting 2 31.9
2020-Jul-05 17:10 137 1 gusting 2 31.9
2020-Jul-05 17:00 056 1 gusting 1 31.9
2020-Jul-05 16:50 225 4 gusting 3 30.9
2020-Jul-05 16:40 122 1 gusting 1 31.5
2020-Jul-05 16:30 186 1 gusting 2 31.6
2020-Jul-05 16:20 217 5 gusting 3 30.6
2020-Jul-05 16:10 216 4 gusting 6 30.2
2020-Jul-05 16:00 236 5 gusting 2 30.0
2020-Jul-05 15:50 225 4 gusting 3 29.7
2020-Jul-05 15:40 234 3 gusting 2 29.6
2020-Jul-05 15:30 214 6 gusting 6 28.8
2020-Jul-05 15:20 220 5 gusting 3 29.0
2020-Jul-05 15:10 184 2 gusting 3 29.1
2020-Jul-05 15:00 192 5 gusting 4 29.0
2020-Jul-05 14:50 171 3 gusting 4 29.2
2020-Jul-05 14:40 228 2 gusting 2 28.5
2020-Jul-05 14:30 171 3 gusting 4 28.6
2020-Jul-05 14:20 242 3 gusting 2 27.5
2020-Jul-05 14:10 197 3 gusting 4 28.0
2020-Jul-05 14:00 165 2 gusting 1 27.7
2020-Jul-05 13:50 179 2 gusting 1 27.5
2020-Jul-05 13:40 186 4 gusting 4 27.1
2020-Jul-05 13:30 192 3 gusting 5 26.6
2020-Jul-05 13:20 198 2 gusting 4 26.3
2020-Jul-05 13:10 236 4 gusting 2 25.5
2020-Jul-05 13:00 223 4 gusting 2 25.5
2020-Jul-05 12:50 263 0 gusting 0 25.2
2020-Jul-05 12:40 211 3 gusting 4 24.9
2020-Jul-05 12:30 193 3 gusting 1 24.8
2020-Jul-05 12:20 209 1 gusting 2 24.6
2020-Jul-05 12:10 24.7
2020-Jul-05 12:00 24.0
2020-Jul-05 11:50 23.1
2020-Jul-05 11:40 22.1
2020-Jul-05 11:30 21.4
2020-Jul-05 11:20 21.0
2020-Jul-05 11:10 20.9
2020-Jul-05 11:00 20.6
2020-Jul-05 10:50 20.5
2020-Jul-05 10:40 20.2
2020-Jul-05 10:30 20.1
2020-Jul-05 10:20 19.9
2020-Jul-05 10:10 20.0
2020-Jul-05 10:00 20.0
2020-Jul-05 09:50 20.0
2020-Jul-05 09:40 20.1
2020-Jul-05 09:30 044 0 gusting 0 20.0
2020-Jul-05 09:20 346 1 gusting 1 19.8
2020-Jul-05 09:10 322 1 gusting 2 19.9
2020-Jul-05 09:00 20.0
2020-Jul-05 08:50 063 1 gusting 1 20.1
2020-Jul-05 08:40 062 1 gusting 2 20.1
2020-Jul-05 08:30 061 0 gusting 1 20.4
2020-Jul-05 08:20 045 0 20.3
2020-Jul-05 08:10 20.2
2020-Jul-05 08:00 20.3